Time;durP1;ratioP1;P1;durP2;ratioP2;P2;SDS_P1;SDS_P2;PMS_P1;PMS_P2;Temp;Humidity;BMP_temperature;BMP_pressure;BME280_temperature;BME280_humidity;BME280_pressure;Samples;Min_cycle;Max_cycle;Signal;HPM_P1;HPM_P2
2022/04/04 00:01:30;;;;;;;7.35;5.50;;;;;;;11.03;91.47;99168.20;1788585;79;21603;-57
2022/04/04 00:03:57;;;;;;;7.47;5.97;;;;;;;11.57;88.38;99165.92;1786056;79;21454;-57
2022/04/04 00:06:28;;;;;;;9.28;6.03;;;;;;;11.89;81.29;99158.30;1778251;79;21066;-57
2022/04/04 00:08:54;;;;;;;7.30;5.85;;;;;;;11.70;81.50;99168.39;1781489;79;21022;-56
2022/04/04 00:11:20;;;;;;;7.95;6.15;;;;;;;11.79;80.05;99167.61;1778883;79;21146;-56
2022/04/04 00:13:48;;;;;;;7.80;6.28;;;;;;;11.80;79.73;99179.14;1779090;79;21002;-57
2022/04/04 00:16:15;;;;;;;7.90;6.30;;;;;;;11.37;84.01;99177.86;1779184;79;20992;-56
2022/04/04 00:18:43;;;;;;;7.95;5.55;;;;;;;10.53;91.97;99190.77;1778056;79;21046;-56
2022/04/04 00:21:10;;;;;;;7.83;5.72;;;;;;;10.36;97.92;99187.85;1781043;79;21066;-61
2022/04/04 00:23:37;;;;;;;8.10;5.80;;;;;;;10.50;97.88;99189.39;1779924;79;22475;-56
2022/04/04 00:26:05;;;;;;;8.08;6.12;;;;;;;10.82;97.17;99194.61;1781274;79;21498;-59
2022/04/04 00:28:32;;;;;;;7.25;5.80;;;;;;;10.45;97.48;99204.35;1782322;79;21066;-60
2022/04/04 00:31:00;;;;;;;7.78;5.90;;;;;;;10.66;94.24;99205.04;1779029;79;21053;-58
2022/04/04 00:33:27;;;;;;;7.47;5.80;;;;;;;10.65;95.00;99210.76;1771652;79;20900;-61
2022/04/04 00:35:54;;;;;;;8.05;6.12;;;;;;;11.27;89.78;99205.72;1761364;79;21153;-58
2022/04/04 00:38:22;;;;;;;8.35;5.92;;;;;;;11.43;84.36;99208.30;1772521;79;21292;-58
2022/04/04 00:40:50;;;;;;;7.67;5.67;;;;;;;11.98;75.91;99195.35;1768239;79;21004;-59
2022/04/04 00:43:16;;;;;;;8.43;6.25;;;;;;;11.87;75.62;99208.62;1810640;78;20927;-60
2022/04/04 00:45:47;;;;;;;6.97;5.50;;;;;;;11.91;74.84;99213.70;1814781;78;21085;-56
2022/04/04 00:48:13;;;;;;;7.72;5.90;;;;;;;11.77;77.41;99220.54;1810294;78;21271;-56
2022/04/04 00:50:40;;;;;;;7.75;5.80;;;;;;;11.79;75.67;99219.33;1815386;78;21544;-57
2022/04/04 00:53:09;;;;;;;7.45;5.62;;;;;;;11.69;75.01;99220.31;1816633;78;21078;-62
2022/04/04 00:55:36;;;;;;;7.08;5.40;;;;;;;11.73;74.71;99221.48;1815848;78;20991;-58
2022/04/04 00:58:02;;;;;;;7.60;5.58;;;;;;;11.68;74.71;99230.47;1815836;78;21030;-59
2022/04/04 01:00:29;;;;;;;6.80;5.25;;;;;;;11.64;74.87;99225.39;1803367;78;22002;-59
2022/04/04 01:02:56;;;;;;;6.42;4.95;;;;;;;11.66;75.11;99223.35;1816342;78;20999;-58
2022/04/04 01:05:23;;;;;;;7.37;5.45;;;;;;;11.67;74.50;99218.45;1816150;78;21003;-62
2022/04/04 01:07:51;;;;;;;7.97;5.70;;;;;;;11.58;74.64;99223.63;1805298;78;20927;-59
2022/04/04 01:10:18;;;;;;;7.85;5.80;;;;;;;11.69;73.21;99221.63;1816899;78;20972;-58
2022/04/04 01:12:51;;;;;;;7.92;6.20;;;;;;;11.71;73.53;99218.30;1816730;78;21237;-58
2022/04/04 01:15:19;;;;;;;7.42;5.95;;;;;;;11.77;72.31;99216.63;1815979;78;21528;-63
2022/04/04 01:17:47;;;;;;;8.65;6.67;;;;;;;11.32;73.28;99218.13;1817020;78;21038;-57
2022/04/04 01:20:14;;;;;;;7.97;6.05;;;;;;;10.82;82.56;99218.08;1815674;78;20979;-57
2022/04/04 01:22:49;;;;;;;7.28;5.65;;;;;;;10.54;85.58;99220.53;1815486;78;21612;-56
2022/04/04 01:25:28;;;;;;;9.15;6.25;;;;;;;9.52;95.18;99215.48;1815103;78;21244;-59
2022/04/04 01:27:57;;;;;;;8.85;6.40;;;;;;;9.08;100.00;99225.95;1806234;78;21443;-57
2022/04/04 01:30:26;;;;;;;8.08;5.90;;;;;;;9.72;100.00;99221.95;1816609;78;21461;-58
2022/04/04 01:32:54;;;;;;;9.58;6.55;;;;;;;9.95;100.00;99218.91;1816211;78;21516;-58
2022/04/04 01:35:22;;;;;;;8.98;6.45;;;;;;;9.90;100.00;99220.83;1815658;78;21006;-58
2022/04/04 01:37:48;;;;;;;8.40;6.35;;;;;;;9.39;100.00;99225.88;1816789;78;22244;-58
2022/04/04 01:40:15;;;;;;;7.75;5.92;;;;;;;9.98;100.00;99231.02;1817364;78;20991;-58
2022/04/04 01:42:50;;;;;;;8.20;6.25;;;;;;;9.63;100.00;99227.08;1815650;78;21031;-57
2022/04/04 01:45:17;;;;;;;7.67;6.10;;;;;;;9.04;100.00;99226.05;1815280;78;20912;-58
2022/04/04 01:47:45;;;;;;;8.58;6.45;;;;;;;9.20;100.00;99223.56;1816097;78;20986;-58
2022/04/04 01:50:12;;;;;;;8.75;6.85;;;;;;;9.32;100.00;99222.47;1817141;78;21039;-57
2022/04/04 01:52:38;;;;;;;8.43;6.20;;;;;;;9.28;100.00;99219.50;1811700;78;21023;-56
2022/04/04 01:55:06;;;;;;;8.73;6.42;;;;;;;8.99;100.00;99218.06;1807911;78;21445;-58
2022/04/04 01:57:35;;;;;;;8.38;6.17;;;;;;;9.03;100.00;99223.16;1815015;78;20998;-57
2022/04/04 02:00:03;;;;;;;8.33;6.37;;;;;;;9.05;100.00;99230.75;1816645;78;20987;-56
2022/04/04 02:02:32;;;;;;;8.83;6.05;;;;;;;9.05;100.00;99229.45;1815638;78;21200;-56
2022/04/04 02:04:59;;;;;;;8.88;6.47;;;;;;;9.00;100.00;99232.66;1819529;77;20872;-58
2022/04/04 02:07:25;;;;;;;8.95;6.47;;;;;;;8.92;100.00;99236.23;1827361;78;21040;-58
2022/04/04 02:09:53;;;;;;;9.25;6.45;;;;;;;9.03;100.00;99239.27;1828190;77;21037;-57
2022/04/04 02:12:20;;;;;;;8.10;5.80;;;;;;;9.06;100.00;99246.67;1828751;77;21026;-57
2022/04/04 02:14:47;;;;;;;7.87;6.03;;;;;;;8.87;100.00;99246.43;1827490;78;21140;-62
2022/04/04 02:17:15;;;;;;;8.40;6.15;;;;;;;8.86;100.00;99252.60;1808445;78;21523;-57
2022/04/04 02:19:42;;;;;;;8.93;6.87;;;;;;;8.63;100.00;99252.94;1825980;78;21469;-56
2022/04/04 02:22:09;;;;;;;8.88;6.80;;;;;;;8.68;100.00;99251.88;1810941;77;21444;-57
2022/04/04 02:24:36;;;;;;;7.60;6.15;;;;;;;8.72;100.00;99257.48;1810615;77;21000;-56
2022/04/04 02:27:04;;;;;;;9.98;6.85;;;;;;;8.77;100.00;99261.59;1801513;78;21503;-58
2022/04/04 02:29:32;;;;;;;7.97;6.47;;;;;;;8.68;100.00;99264.07;1811152;77;22485;-56
2022/04/04 02:31:59;;;;;;;10.88;7.12;;;;;;;8.67;100.00;99265.05;1805684;77;21022;-57
2022/04/04 02:34:25;;;;;;;7.45;5.87;;;;;;;8.77;100.00;99274.58;1803403;78;21452;-56
2022/04/04 02:36:52;;;;;;;8.45;6.30;;;;;;;8.71;100.00;99270.15;1802335;78;20978;-57
2022/04/04 02:39:18;;;;;;;8.98;6.80;;;;;;;9.65;100.00;99268.00;1801841;78;21159;-58
2022/04/04 02:41:45;;;;;;;8.73;6.95;;;;;;;10.06;100.00;99269.55;1803603;77;21430;-56
2022/04/04 02:44:12;;;;;;;8.63;6.37;;;;;;;10.28;100.00;99264.93;1801524;78;21029;-57
2022/04/04 02:46:39;;;;;;;8.83;6.80;;;;;;;10.16;100.00;99275.95;1806024;77;20915;-57
2022/04/04 02:49:06;;;;;;;8.40;6.15;;;;;;;10.23;100.00;99281.14;1801456;78;21491;-56
2022/04/04 02:51:33;;;;;;;9.68;6.95;;;;;;;10.30;100.00;99283.73;1807029;77;21246;-57
2022/04/04 02:54:00;;;;;;;8.53;6.60;;;;;;;10.27;100.00;99288.88;1821325;77;21044;-57
2022/04/04 02:56:29;;;;;;;7.58;6.12;;;;;;;10.34;100.00;99292.27;1826525;77;20951;-58
2022/04/04 02:59:00;;;;;;;8.60;6.22;;;;;;;10.41;100.00;99296.92;1828631;77;21390;-56
2022/04/04 03:01:27;;;;;;;8.10;6.55;;;;;;;10.46;100.00;99300.25;1795250;78;20976;-58
2022/04/04 03:03:53;;;;;;;8.33;6.22;;;;;;;10.29;100.00;99297.27;1771657;80;21270;-59
2022/04/04 03:06:20;;;;;;;7.30;5.62;;;;;;;10.03;100.00;99307.20;1772319;80;21502;-59
2022/04/04 03:08:47;;;;;;;7.85;6.00;;;;;;;10.57;100.00;99303.98;1772937;80;21488;-59
2022/04/04 03:11:16;;;;;;;7.45;5.83;;;;;;;10.60;99.29;99303.59;1771622;80;20990;-58
2022/04/04 03:13:44;;;;;;;7.33;5.35;;;;;;;10.58;96.90;99303.80;1771171;80;20928;-59
2022/04/04 03:16:11;;;;;;;8.28;5.55;;;;;;;10.47;96.76;99313.05;1772644;80;21263;-58
2022/04/04 03:18:38;;;;;;;7.95;5.85;;;;;;;10.56;95.45;99316.23;1772134;80;20938;-58
2022/04/04 03:21:06;;;;;;;7.55;5.65;;;;;;;10.57;94.99;99316.55;1771415;80;21093;-56
2022/04/04 03:23:33;;;;;;;8.73;5.67;;;;;;;10.63;94.43;99321.42;1764077;80;20936;-56
2022/04/04 03:26:00;;;;;;;7.25;5.67;;;;;;;10.58;94.74;99318.64;1771805;80;20994;-59
2022/04/04 03:28:27;;;;;;;7.92;6.03;;;;;;;9.47;100.00;99334.92;1772905;80;21276;-57
2022/04/04 03:30:53;;;;;;;7.70;5.83;;;;;;;8.88;100.00;99338.98;1772862;80;20969;-57
2022/04/04 03:33:21;;;;;;;7.30;5.20;;;;;;;9.13;100.00;99336.68;1770809;80;21049;-57
2022/04/04 03:35:48;;;;;;;6.58;4.65;;;;;;;8.87;100.00;99340.49;1772473;80;21362;-56
2022/04/04 03:38:15;;;;;;;7.17;5.37;;;;;;;8.64;100.00;99335.59;1771834;80;20924;-62
2022/04/04 03:40:42;;;;;;;6.67;4.97;;;;;;;8.40;100.00;99349.34;1771036;80;22338;-57
2022/04/04 03:43:09;;;;;;;7.80;5.53;;;;;;;8.48;100.00;99345.28;1772258;80;21536;-57
2022/04/04 03:45:36;;;;;;;6.55;4.75;;;;;;;8.46;100.00;99356.88;1765595;80;20984;-58
2022/04/04 03:48:04;;;;;;;7.90;4.87;;;;;;;8.42;100.00;99355.66;1773127;80;22267;-57
2022/04/04 03:50:31;;;;;;;7.17;5.20;;;;;;;8.55;100.00;99360.11;1772597;80;21042;-57
2022/04/04 03:52:57;;;;;;;8.55;5.72;;;;;;;8.46;100.00;99362.07;1772667;80;21140;-57
2022/04/04 03:55:37;;;;;;;7.55;5.87;;;;;;;8.43;100.00;99365.05;1773091;80;21592;-58
2022/04/04 03:58:03;;;;;;;6.10;4.62;;;;;;;8.44;100.00;99371.33;1772312;80;20920;-59
2022/04/04 04:00:30;;;;;;;7.08;5.03;;;;;;;8.57;100.00;99372.42;1772537;80;20998;-57
2022/04/04 04:02:57;;;;;;;8.25;5.20;;;;;;;8.40;100.00;99372.70;1766714;80;21122;-57
2022/04/04 04:05:24;;;;;;;6.60;4.58;;;;;;;8.88;100.00;99370.17;1754844;81;21910;-57
2022/04/04 04:07:52;;;;;;;6.58;4.67;;;;;;;8.34;100.00;99373.45;1755864;81;21023;-58
2022/04/04 04:10:19;;;;;;;6.25;4.65;;;;;;;8.42;100.00;99375.93;1753515;81;21564;-59
2022/04/04 04:12:46;;;;;;;6.42;4.60;;;;;;;8.65;100.00;99387.85;1735768;81;20972;-57
2022/04/04 04:15:23;;;;;;;7.30;4.95;;;;;;;8.67;100.00;99384.55;1765126;81;21387;-58
2022/04/04 04:17:52;;;;;;;6.58;4.17;;;;;;;8.72;100.00;99383.00;1754322;80;20948;-58
2022/04/04 04:20:20;;;;;;;6.03;3.60;;;;;;;8.73;100.00;99383.80;1750011;81;20920;-59
2022/04/04 04:22:58;;;;;;;5.60;3.92;;;;;;;8.93;100.00;99388.58;1758059;81;21133;-57
2022/04/04 04:25:28;;;;;;;5.47;3.87;;;;;;;8.84;100.00;99400.14;1745477;81;21086;-57
2022/04/04 04:27:57;;;;;;;5.83;3.90;;;;;;;8.94;100.00;99395.41;1753674;81;22261;-60
2022/04/04 04:30:24;;;;;;;6.72;3.98;;;;;;;9.14;100.00;99394.17;1754679;81;21072;-58
2022/04/04 04:32:51;;;;;;;6.87;3.80;;;;;;;9.45;100.00;99394.16;1755740;81;20952;-56
2022/04/04 04:35:18;;;;;;;5.97;4.05;;;;;;;10.39;100.00;99391.94;1766869;81;21004;-56
2022/04/04 04:37:45;;;;;;;6.22;4.45;;;;;;;10.31;99.86;99396.86;1766499;81;20965;-55
2022/04/04 04:40:12;;;;;;;5.45;3.90;;;;;;;9.62;100.00;99393.28;1766739;81;21120;-56
2022/04/04 04:42:39;;;;;;;6.55;4.12;;;;;;;9.54;100.00;99406.48;1765191;81;22390;-56
2022/04/04 04:45:07;;;;;;;6.25;4.40;;;;;;;9.69;100.00;99407.91;1766388;80;21034;-56
2022/04/04 04:47:34;;;;;;;5.45;3.98;;;;;;;9.90;100.00;99403.05;1764470;81;20984;-56
2022/04/04 04:50:01;;;;;;;4.92;3.55;;;;;;;9.72;100.00;99408.02;1757965;81;21011;-56
2022/04/04 04:52:28;;;;;;;4.58;3.25;;;;;;;10.53;100.00;99400.52;1765874;81;20979;-58
2022/04/04 04:54:56;;;;;;;4.67;3.22;;;;;;;10.45;98.76;99401.06;1766462;81;21369;-56
2022/04/04 04:57:23;;;;;;;4.62;3.25;;;;;;;10.11;100.00;99409.05;1766079;81;20921;-58
2022/04/04 04:59:50;;;;;;;5.10;3.00;;;;;;;10.55;93.14;99409.75;1755343;81;21032;-57
2022/04/04 05:02:17;;;;;;;4.33;3.02;;;;;;;10.02;94.24;99411.56;1772861;79;21063;-58
2022/04/04 05:04:44;;;;;;;4.05;2.72;;;;;;;9.69;100.00;99412.31;1766034;78;21026;-58
2022/04/04 05:07:13;;;;;;;4.42;2.90;;;;;;;9.68;100.00;99412.02;1771469;78;21251;-57
2022/04/04 05:09:40;;;;;;;4.35;2.35;;;;;;;9.69;100.00;99419.63;1734638;82;21028;-58
2022/04/04 05:12:09;;;;;;;4.17;2.67;;;;;;;9.77;100.00;99422.53;1752651;80;21620;-58
2022/04/04 05:14:36;;;;;;;6.62;4.08;;;;;;;9.88;100.00;99421.95;1771345;79;20987;-57
2022/04/04 05:17:05;;;;;;;5.87;4.10;;;;;;;10.04;99.06;99431.67;1783533;79;21002;-56
2022/04/04 05:19:32;;;;;;;4.33;2.70;;;;;;;10.69;91.38;99426.97;1781836;80;21884;-58
2022/04/04 05:22:01;;;;;;;3.20;2.08;;;;;;;10.83;85.13;99431.63;1784305;79;21537;-58
2022/04/04 05:24:28;;;;;;;4.42;2.35;;;;;;;10.74;82.78;99440.69;1782942;79;20884;-58
2022/04/04 05:26:56;;;;;;;3.42;2.00;;;;;;;11.21;75.57;99440.03;1782167;80;21297;-58
2022/04/04 05:29:26;;;;;;;3.55;2.05;;;;;;;11.22;72.62;99439.55;1783686;79;20999;-57
2022/04/04 05:31:55;;;;;;;3.65;2.08;;;;;;;11.13;71.13;99446.79;1783226;79;21098;-57
2022/04/04 05:34:26;;;;;;;4.80;2.42;;;;;;;11.08;71.54;99450.02;1782150;80;20975;-57
2022/04/04 05:36:52;;;;;;;3.33;2.17;;;;;;;10.98;73.09;99450.15;1772425;79;21467;-57
2022/04/04 05:39:18;;;;;;;3.65;2.10;;;;;;;10.12;78.27;99464.05;1783284;79;20975;-57
2022/04/04 05:41:46;;;;;;;3.75;2.40;;;;;;;10.24;78.25;99471.56;1783322;79;20990;-58
2022/04/04 05:44:13;;;;;;;3.25;2.10;;;;;;;10.19;79.95;99472.65;1783162;79;22538;-57
2022/04/04 05:46:39;;;;;;;2.40;1.65;;;;;;;9.96;80.89;99484.27;1782726;79;20900;-59
2022/04/04 05:49:07;;;;;;;2.50;1.42;;;;;;;10.01;81.09;99490.68;1782213;80;21062;-56
2022/04/04 05:51:34;;;;;;;4.30;2.20;;;;;;;10.16;76.10;99489.49;1783314;79;21203;-57
2022/04/04 05:54:02;;;;;;;5.70;3.67;;;;;;;10.96;67.24;99487.67;1783247;79;20963;-57
2022/04/04 05:56:29;;;;;;;3.30;1.90;;;;;;;11.01;67.35;99488.36;1782620;80;21155;-58
2022/04/04 05:58:56;;;;;;;2.22;1.27;;;;;;;11.15;65.01;99483.91;1781724;80;20924;-57
2022/04/04 06:01:22;;;;;;;2.12;1.30;;;;;;;11.34;64.14;99493.48;1782470;80;21058;-58
2022/04/04 06:03:50;;;;;;;1.40;0.75;;;;;;;11.42;63.72;99486.72;1782508;80;21035;-58
2022/04/04 06:06:17;;;;;;;1.95;0.95;;;;;;;11.52;59.99;99489.41;1783044;79;21058;-58
2022/04/04 06:08:45;;;;;;;1.98;1.10;;;;;;;11.46;60.66;99502.77;1783603;79;21260;-60
2022/04/04 06:11:13;;;;;;;2.05;0.95;;;;;;;11.07;60.16;99505.80;1781889;80;22065;-58
2022/04/04 06:13:41;;;;;;;2.77;1.52;;;;;;;11.15;61.03;99517.31;1783802;79;21023;-55
2022/04/04 06:16:09;;;;;;;3.02;1.92;;;;;;;11.16;60.33;99512.90;1783134;79;21019;-57
2022/04/04 06:18:37;;;;;;;4.08;2.40;;;;;;;11.12;60.73;99523.44;1779024;78;21110;-55
2022/04/04 06:21:06;;;;;;;2.00;1.30;;;;;;;11.83;60.22;99517.36;1773007;78;21032;-56
2022/04/04 06:23:33;;;;;;;3.25;1.37;;;;;;;12.35;57.00;99526.72;1782732;80;21543;-56
2022/04/04 06:26:05;;;;;;;1.80;1.05;;;;;;;11.48;58.81;99528.64;1782561;80;21473;-57
2022/04/04 06:28:34;;;;;;;1.95;0.98;;;;;;;11.69;56.99;99537.50;1782763;80;20974;-57
2022/04/04 06:31:03;;;;;;;1.80;1.00;;;;;;;11.90;56.39;99532.02;1780133;80;21568;-61
2022/04/04 06:33:31;;;;;;;1.83;1.03;;;;;;;13.23;52.95;99541.45;1782762;80;21237;-57
2022/04/04 06:35:58;;;;;;;2.35;1.02;;;;;;;13.51;50.06;99541.44;1782531;80;21096;-56
2022/04/04 06:38:25;;;;;;;2.20;1.00;;;;;;;13.09;50.00;99538.64;1783709;79;21085;-57
2022/04/04 06:40:51;;;;;;;1.63;0.90;;;;;;;12.85;50.17;99545.02;1782559;80;21675;-57
2022/04/04 06:43:19;;;;;;;1.90;0.90;;;;;;;12.89;48.84;99547.48;1782351;79;21668;-57
2022/04/04 06:45:46;;;;;;;1.90;1.13;;;;;;;12.83;47.92;99555.39;1783970;79;21376;-57
2022/04/04 06:48:12;;;;;;;2.20;1.10;;;;;;;12.57;48.53;99568.16;1784392;79;21270;-56
2022/04/04 06:50:40;;;;;;;2.13;1.07;;;;;;;12.51;48.88;99568.52;1783792;79;21281;-57
2022/04/04 06:53:08;;;;;;;1.87;1.00;;;;;;;12.64;48.61;99559.25;1782518;80;21353;-58
2022/04/04 06:55:38;;;;;;;3.57;1.30;;;;;;;12.81;49.75;99571.81;1783566;79;21305;-56
2022/04/04 06:58:05;;;;;;;2.77;1.57;;;;;;;13.11;48.70;99571.95;1783294;79;21159;-58
2022/04/04 07:00:32;;;;;;;2.30;1.27;;;;;;;13.51;48.56;99574.97;1782766;80;21252;-58
2022/04/04 07:03:00;;;;;;;2.00;1.10;;;;;;;14.84;45.56;99568.70;1783290;79;21187;-57
2022/04/04 07:05:27;;;;;;;3.20;1.73;;;;;;;14.84;45.56;99568.70;1781806;80;21379;-60
2022/04/04 07:07:54;;;;;;;2.77;1.40;;;;;;;15.94;41.52;99569.70;1784367;79;21736;-57
2022/04/04 07:10:21;;;;;;;2.23;1.23;;;;;;;15.94;41.52;99569.70;1783891;79;21164;-57
2022/04/04 07:12:50;;;;;;;2.57;1.40;;;;;;;16.27;41.17;99570.81;1768663;78;20931;-57
2022/04/04 07:15:16;;;;;;;6.47;3.57;;;;;;;16.60;40.04;99571.37;1782384;78;21030;-57
2022/04/04 07:17:45;;;;;;;5.67;3.50;;;;;;;16.58;38.91;99574.74;1782853;79;20951;-56
2022/04/04 07:20:12;;;;;;;4.20;2.30;;;;;;;16.34;38.74;99583.82;1773195;78;21042;-56
2022/04/04 07:22:41;;;;;;;3.13;1.90;;;;;;;15.92;39.57;99586.75;1786474;78;21235;-55
2022/04/04 07:25:09;;;;;;;2.10;1.30;;;;;;;15.90;39.84;99596.69;1775089;78;21105;-56
2022/04/04 07:27:44;;;;;;;1.60;1.10;;;;;;;15.85;39.13;99585.56;1777648;78;20995;-61
2022/04/04 07:30:13;;;;;;;2.25;1.35;;;;;;;15.56;38.96;99597.83;1783276;78;21308;-58
2022/04/04 07:32:40;;;;;;;2.53;1.60;;;;;;;15.14;39.46;99600.61;1771453;78;21011;-56
2022/04/04 07:35:10;;;;;;;4.27;2.60;;;;;;;14.70;40.20;99603.25;1783580;79;22155;-56
2022/04/04 07:37:39;;;;;;;6.05;3.62;;;;;;;14.31;41.13;99608.83;1662554;86;21046;-56
2022/04/04 07:40:10;;;;;;;4.17;2.37;;;;;;;14.10;41.13;99616.69;1663057;86;21094;-56
2022/04/04 07:42:55;;;;;;;3.33;1.97;;;;;;;14.06;41.51;99609.50;1663151;86;21770;-58
2022/04/04 07:45:39;;;;;;;2.13;1.30;;;;;;;14.35;40.63;99622.30;1661871;86;21723;-57
2022/04/04 07:48:09;;;;;;;2.20;1.20;;;;;;;14.35;40.63;99622.30;1655326;81;21561;-58
2022/04/04 07:50:36;;;;;;;2.13;1.30;;;;;;;13.53;42.09;99625.83;1715566;82;21469;-58
2022/04/04 07:53:04;;;;;;;2.40;1.20;;;;;;;14.08;41.84;99625.78;1775905;78;21311;-62
2022/04/04 07:55:31;;;;;;;2.50;1.30;;;;;;;13.88;42.13;99638.62;1736549;82;21218;-58
2022/04/04 07:57:59;;;;;;;2.50;1.30;;;;;;;13.52;42.14;99637.30;1772974;80;21373;-58
2022/04/04 08:00:26;;;;;;;3.67;1.73;;;;;;;13.21;42.73;99640.28;1780684;80;21972;-58
2022/04/04 08:02:54;;;;;;;2.30;1.37;;;;;;;13.08;43.17;99650.87;1777556;79;21230;-57
2022/04/04 08:05:21;;;;;;;2.70;1.43;;;;;;;12.70;44.08;99650.95;1757274;80;21134;-60
2022/04/04 08:07:48;;;;;;;2.33;1.40;;;;;;;12.59;44.99;99658.97;1756323;80;21287;-57
2022/04/04 08:10:16;;;;;;;3.20;1.50;;;;;;;12.58;45.11;99657.37;1756693;80;21291;-58
2022/04/04 08:12:46;;;;;;;2.50;1.50;;;;;;;12.48;45.60;99662.25;1755303;81;21928;-57
2022/04/04 08:15:13;;;;;;;2.47;1.40;;;;;;;12.47;45.89;99659.34;1757001;80;21205;-56
2022/04/04 08:17:40;;;;;;;3.67;1.50;;;;;;;12.60;45.55;99657.95;1756785;81;21275;-61
2022/04/04 08:20:08;;;;;;;2.00;1.20;;;;;;;12.63;45.11;99664.06;1756722;80;22626;-57
2022/04/04 08:22:44;;;;;;;3.30;1.90;;;;;;;12.52;45.01;99665.53;1757230;81;21330;-57
2022/04/04 08:25:12;;;;;;;2.30;1.20;;;;;;;12.55;45.12;99673.47;1756496;81;21871;-56
2022/04/04 08:27:40;;;;;;;3.20;1.23;;;;;;;12.38;45.59;99672.63;1756310;80;21398;-57
2022/04/04 08:30:10;;;;;;;2.33;1.30;;;;;;;12.45;46.30;99678.34;1756764;81;21738;-56
2022/04/04 08:32:39;;;;;;;2.70;1.40;;;;;;;12.09;47.55;99685.74;1757227;81;20940;-57
2022/04/04 08:35:08;;;;;;;2.37;1.40;;;;;;;12.01;48.11;99679.92;1757280;80;20991;-57
2022/04/04 08:37:36;;;;;;;3.95;1.60;;;;;;;11.87;48.63;99683.90;1757139;80;21236;-59
2022/04/04 08:40:06;;;;;;;3.47;1.40;;;;;;;11.63;49.54;99687.12;1756816;80;21793;-58
2022/04/04 08:42:32;;;;;;;2.47;1.35;;;;;;;11.45;50.57;99689.08;1756675;81;21039;-56
2022/04/04 08:45:01;;;;;;;2.52;0.90;;;;;;;11.31;51.31;99691.38;1756813;80;21015;-56
2022/04/04 08:47:29;;;;;;;2.27;1.27;;;;;;;11.23;52.26;99699.41;1757936;80;21066;-60
2022/04/04 08:49:56;;;;;;;2.55;1.45;;;;;;;11.17;53.00;99706.22;1756095;81;21700;-55
2022/04/04 08:52:23;;;;;;;2.22;1.05;;;;;;;11.03;53.51;99696.80;1757208;80;21828;-56
2022/04/04 08:54:50;;;;;;;3.80;1.77;;;;;;;10.63;54.71;99705.84;1746207;80;21060;-56
2022/04/04 08:57:17;;;;;;;2.70;1.35;;;;;;;10.34;57.53;99705.17;1756492;80;21569;-57
2022/04/04 08:59:44;;;;;;;2.55;1.32;;;;;;;10.28;60.14;99703.83;1756744;81;21011;-58
2022/04/04 09:02:12;;;;;;;3.00;1.70;;;;;;;10.30;61.89;99704.42;1756031;81;21397;-56
2022/04/04 09:04:39;;;;;;;2.75;1.70;;;;;;;10.39;62.29;99700.17;1777969;79;21062;-57
2022/04/04 09:07:09;;;;;;;3.08;2.00;;;;;;;10.47;63.33;99709.11;1783065;79;20971;-59
2022/04/04 09:09:44;;;;;;;3.33;2.05;;;;;;;10.46;64.96;99707.51;1783410;79;21625;-56
2022/04/04 09:12:19;;;;;;;2.40;1.67;;;;;;;10.56;65.65;99701.91;1782042;80;20912;-57
2022/04/04 09:14:51;;;;;;;2.75;1.75;;;;;;;10.77;62.72;99716.61;1782000;79;21810;-56
2022/04/04 09:17:21;;;;;;;3.72;2.20;;;;;;;10.88;61.13;99715.23;1783478;79;21047;-57
2022/04/04 09:19:48;;;;;;;3.22;1.77;;;;;;;10.88;60.84;99717.84;1772792;80;21044;-58
2022/04/04 09:22:18;;;;;;;2.60;1.50;;;;;;;11.27;61.48;99717.58;1783209;79;21102;-56
2022/04/04 09:24:49;;;;;;;2.10;1.30;;;;;;;11.56;57.99;99710.64;1783167;79;21580;-57
2022/04/04 09:27:29;;;;;;;2.95;1.70;;;;;;;11.74;58.29;99715.73;1783823;79;21541;-57
2022/04/04 09:29:58;;;;;;;2.35;1.50;;;;;;;12.17;57.78;99728.62;1782612;80;20990;-58
2022/04/04 09:32:43;;;;;;;2.70;1.67;;;;;;;12.30;53.58;99729.06;1785127;79;20979;-56
2022/04/04 09:35:15;;;;;;;2.60;1.47;;;;;;;12.45;50.31;99730.62;1784027;79;20990;-58
2022/04/04 09:37:49;;;;;;;2.37;1.42;;;;;;;12.14;48.51;99734.76;1781756;80;21419;-59
2022/04/04 09:40:25;;;;;;;2.52;1.57;;;;;;;11.94;48.77;99743.95;1783618;79;21128;-56
2022/04/04 09:42:58;;;;;;;3.10;1.65;;;;;;;11.59;50.18;99748.57;1782492;80;21043;-60
2022/04/04 09:45:28;;;;;;;2.95;1.85;;;;;;;11.79;50.98;99742.05;1782680;80;21424;-57
2022/04/04 09:48:08;;;;;;;3.90;1.77;;;;;;;12.04;50.25;99755.27;1783824;79;21591;-56
2022/04/04 09:50:45;;;;;;;2.85;1.52;;;;;;;11.59;51.47;99760.32;1783778;79;20967;-57
2022/04/04 09:53:23;;;;;;;3.20;1.42;;;;;;;11.89;49.00;99759.42;1784790;79;21121;-56
2022/04/04 09:55:55;;;;;;;3.25;1.80;;;;;;;11.79;48.56;99763.73;1772514;79;20924;-56
2022/04/04 09:58:28;;;;;;;3.00;1.62;;;;;;;10.95;49.37;99772.92;1783040;80;21113;-63
2022/04/04 10:00:55;;;;;;;2.72;1.65;;;;;;;10.81;50.03;99779.09;1778940;79;21446;-57
2022/04/04 10:03:23;;;;;;;2.55;1.52;;;;;;;10.86;50.70;99784.52;1782526;79;21086;-56
2022/04/04 10:06:09;;;;;;;3.58;1.95;;;;;;;10.88;50.75;99777.31;1755606;81;21543;-57
2022/04/04 10:08:37;;;;;;;3.30;2.10;;;;;;;11.58;49.54;99779.61;1766347;81;21106;-54
2022/04/04 10:11:08;;;;;;;3.37;1.82;;;;;;;10.94;49.84;99788.24;1739306;81;21106;-55
2022/04/04 10:13:34;;;;;;;3.70;2.10;;;;;;;10.76;51.13;99790.63;1766150;81;21484;-54
2022/04/04 10:16:01;;;;;;;4.17;2.60;;;;;;;10.56;51.98;99787.11;1766215;81;21087;-61
2022/04/04 10:18:28;;;;;;;3.98;2.70;;;;;;;10.46;52.31;99804.42;1765474;81;21234;-55
2022/04/04 10:20:54;;;;;;;3.80;2.30;;;;;;;10.29;53.07;99801.31;1767087;81;21820;-55
2022/04/04 10:23:24;;;;;;;3.58;2.25;;;;;;;10.40;53.19;99802.58;1765713;81;21478;-56
2022/04/04 10:25:52;;;;;;;5.87;3.45;;;;;;;11.13;51.69;99801.53;1755682;81;22124;-55
2022/04/04 10:28:29;;;;;;;6.35;3.25;;;;;;;10.67;51.44;99802.20;1765523;81;20854;-57
2022/04/04 10:30:58;;;;;;;4.25;2.85;;;;;;;10.84;52.14;99803.48;1759463;81;21223;-55
2022/04/04 10:33:25;;;;;;;5.53;3.30;;;;;;;11.24;51.15;99806.17;1765490;81;20912;-54
2022/04/04 10:36:16;;;;;;;5.00;2.65;;;;;;;10.40;52.33;99805.19;1766759;81;21008;-55
2022/04/04 10:38:49;;;;;;;4.90;2.87;;;;;;;10.32;53.02;99810.55;1764895;80;21101;-55
2022/04/04 10:41:28;;;;;;;5.40;3.15;;;;;;;10.52;52.43;99817.17;1767130;81;21509;-55
2022/04/04 10:43:56;;;;;;;5.08;3.20;;;;;;;10.75;51.67;99821.58;1747395;81;21267;-56
2022/04/04 10:46:24;;;;;;;4.30;2.83;;;;;;;10.94;51.28;99827.36;1766108;81;21141;-55
2022/04/04 10:49:02;;;;;;;8.00;3.85;;;;;;;11.23;49.70;99805.88;1767099;81;21047;-55
2022/04/04 10:51:34;;;;;;;5.30;3.20;;;;;;;11.32;49.75;99824.24;1761742;81;21659;-58
2022/04/04 10:54:10;;;;;;;4.75;2.90;;;;;;;11.47;49.02;99821.45;1766670;81;21470;-57
2022/04/04 10:56:48;;;;;;;4.80;3.00;;;;;;;11.51;48.86;99831.00;1766477;81;21258;-55
2022/04/04 10:59:24;;;;;;;3.60;2.60;;;;;;;11.69;48.58;99827.30;1765051;81;21730;-60
2022/04/04 11:01:56;;;;;;;6.10;2.85;;;;;;;11.63;48.93;99826.31;1766793;81;21047;-58
2022/04/04 11:04:29;;;;;;;4.28;2.70;;;;;;;12.89;47.34;99815.61;1767287;79;21022;-58
2022/04/04 11:09:56;;;;;;;4.30;2.47;;;;;;;14.00;44.47;99809.52;1766896;81;22202;-58
2022/04/04 11:12:25;;;;;;;4.53;2.87;;;;;;;14.41;42.49;99814.14;1766713;81;21132;-56
2022/04/04 11:15:04;;;;;;;3.97;2.50;;;;;;;14.53;41.88;99814.24;1756080;81;21214;-60
2022/04/04 11:17:36;;;;;;;4.33;2.50;;;;;;;14.51;40.52;99817.09;1741606;81;21362;-55
2022/04/04 11:20:31;;;;;;;4.55;2.75;;;;;;;13.63;40.88;99822.52;1767063;81;21272;-56
2022/04/04 11:22:55;;;;;;;5.17;3.00;;;;;;;13.41;41.75;99826.02;1764550;81;22345;-56
2022/04/04 11:25:22;;;;;;;5.42;3.08;;;;;;;13.44;42.14;99831.33;1766795;81;21303;-57
2022/04/04 11:27:48;;;;;;;4.00;2.30;;;;;;;13.54;41.86;99828.53;1766403;81;21083;-57
2022/04/04 11:30:20;;;;;;;4.53;2.80;;;;;;;13.55;41.28;99828.02;1766637;81;21004;-56
2022/04/04 11:32:49;;;;;;;;;;;;;;;13.51;41.55;99825.03;1768275;81;21377;-57
2022/04/04 11:35:22;;;;;;;4.30;2.70;;;;;;;13.57;41.50;99828.63;1766509;81;21182;-56
2022/04/04 11:38:06;;;;;;;4.23;2.27;;;;;;;13.60;41.71;99834.75;1755496;81;21828;-57
2022/04/04 11:40:37;;;;;;;3.83;2.27;;;;;;;13.56;41.50;99825.21;1766248;81;21190;-57
2022/04/04 11:43:10;;;;;;;3.67;2.12;;;;;;;13.44;41.77;99828.20;1766622;81;26875;-57
2022/04/04 11:45:39;;;;;;;3.87;2.10;;;;;;;13.41;41.46;99831.27;1765816;81;21091;-56